Disclaimer

    

CYCD

METAR CYCD 292000Z 10006KT 30SM FEW020 BKN053 07/03 A3020 RMK SF1SC6 SLP228=

METAR CYCD 291900Z VRB02KT 20SM FEW012 SCT067 BKN120 06/04 A3023 RMK SF1AC3AC4 SF TR SLP238=

METAR CYCD 291800Z VRB02KT 20SM FEW010 FEW035 BKN130 05/04 A3024 RMK SF1SC1AC7 SF TR SC TR SLP243=

TAF CYCD 291738Z 2918/3005 VRB03KT P6SM FEW030 BKN230
FM292000 13007KT P6SM FEW015 BKN050 TEMPO 2920/2924 P6SM -RA BKN015 OVC050
FM300200 13005KT P6SM SCT050 BKN220 TEMPO 3002/3005 BKN050 RMK NXT FCST BY 300000Z=

CYVR

METAR CYVR 292000Z 07006KT 20SM FEW050 BKN071 BKN130 BKN260 06/03 A3020 RMK SC1AC5AC2CI1 SC TR CI TR SLP229=

METAR CYVR 291900Z 09005KT 20SM FEW050 BKN130 BKN260 06/03 A3024 RMK SC1AC7CI1 SC TR CI TR SLP240=

METAR CYVR 291800Z 00000KT 20SM SCT053 BKN150 BKN210 BKN260 05/04 A3026 RMK SC4AC1CC2CI1 CI TR SLP249=

TAF CYVR 291738Z 2918/3024 VRB03KT P6SM SCT050 BKN210
FM292100 10008KT P6SM BKN060 TEMPO 2922/3003 P6SM -RA
FM300800 11012G22KT P6SM -RA SCT020 OVC040 TEMPO 3008/3014 5SM RA BR BKN020 OVC040 BECMG 3010/3012 14020G30KT
FM301400 28020G30KT P6SM -SHRA BKN030 BKN080
FM301700 28015G25KT P6SM BKN040 RMK NXT FCST BY 292100Z=

CYXX

METAR CYXX 292000Z VRB02KT 30SM BKN140 BKN210 08/03 A3019 RMK AC5CI2 ACSL SLP226=

METAR CYXX 291900Z 04004KT 020V090 30SM SCT160 BKN210 07/02 A3023 RMK AC4CI2 SLP240=

METAR CYXX 291800Z 07005KT 30SM FEW110 BKN210 05/02 A3025 RMK AC1CI5 SLP248=

TAF CYXX 291738Z 2918/3018 04005KT P6SM FEW050 BKN210
FM292200 06006KT P6SM BKN060 BECMG 3007/3009 14012KT
FM301000 18020G30KT P6SM -RA SCT020 OVC040 TEMPO 3010/3016 3SM RA BR BKN020 OVC040
FM301600 23012G22KT 5SM -SHRA BR BKN020 OVC040 RMK NXT FCST BY 300000Z=

Supplemental information

Lower mainland ATIS: 1-877-517-2847

CZBB (Boundary Bay) current winds

Upper winds (Vancouver)

Data fromValid at300060009000
29120029180013161913+022232-02
29120030000016222124+012233-02
29120030120020322337-022434-07

NOTAMs

On October 10, 2019, NAV CANADA changed to the ICAO NOTAM format. They are now available only through Collaborative Flight Planning Services (CFPS) (plan.navcanada.ca). I'm working to update this site to pull in the relevant NOTAMs in the new format.